createdAt,value
2022-10-21T00:00:53.377Z,6.95
2022-10-21T00:03:21.212Z,8.48
2022-10-21T00:05:49.201Z,9.07
2022-10-21T00:08:17.343Z,7.38
2022-10-21T00:10:45.021Z,6.93
2022-10-21T00:13:12.849Z,5.80
2022-10-21T00:15:40.160Z,6.55
2022-10-21T00:18:07.376Z,9.35
2022-10-21T00:20:37.362Z,8.05
2022-10-21T00:23:07.437Z,5.53
2022-10-21T00:25:34.742Z,3.83
2022-10-21T00:28:02.029Z,7.32
2022-10-21T00:30:29.355Z,10.32
2022-10-21T00:33:00.764Z,4.25
2022-10-21T00:35:33.802Z,4.43
2022-10-21T00:38:01.146Z,4.93
2022-10-21T00:40:28.549Z,4.18
2022-10-21T00:42:55.840Z,4.45
2022-10-21T00:45:25.781Z,9.63
2022-10-21T00:48:00.094Z,19.85
2022-10-21T00:50:37.423Z,9.52
2022-10-21T00:53:12.805Z,13.40
2022-10-21T00:55:43.872Z,7.10
2022-10-21T00:58:11.818Z,7.72
2022-10-21T01:00:39.400Z,5.65
2022-10-21T01:03:06.819Z,8.27
2022-10-21T01:05:38.139Z,8.15
2022-10-21T01:08:05.876Z,6.95
2022-10-21T01:10:33.315Z,7.90
2022-10-21T01:13:13.274Z,5.45
2022-10-21T01:16:13.759Z,6.82
2022-10-21T01:19:16.033Z,7.82
2022-10-21T01:22:01.471Z,7.38
2022-10-21T01:24:28.749Z,6.63
2022-10-21T01:27:21.801Z,5.18
2022-10-21T01:30:07.309Z,5.88
2022-10-21T01:32:41.015Z,5.95
2022-10-21T01:35:26.788Z,5.17
2022-10-21T01:38:38.781Z,6.03
2022-10-21T01:41:25.502Z,7.93
2022-10-21T01:44:02.318Z,4.88
2022-10-21T01:47:00.903Z,7.32
2022-10-21T01:49:42.874Z,6.47
2022-10-21T01:52:11.698Z,4.50
2022-10-21T01:54:44.459Z,2.35
2022-10-21T01:57:16.179Z,4.18
2022-10-21T01:59:45.682Z,10.45
2022-10-21T02:02:16.020Z,3.78
2022-10-21T02:04:45.663Z,4.32
2022-10-21T02:07:13.500Z,7.97
2022-10-21T02:09:40.933Z,4.03
2022-10-21T02:12:10.431Z,4.75
2022-10-21T02:14:46.435Z,4.05
2022-10-21T02:17:17.461Z,5.30
2022-10-21T02:19:46.531Z,3.30
2022-10-21T02:22:19.249Z,8.57
2022-10-21T02:24:53.475Z,1.70
2022-10-21T02:27:21.764Z,2.83
2022-10-21T02:29:52.499Z,6.10
2022-10-21T02:32:29.087Z,3.90
2022-10-21T02:35:30.287Z,4.15
2022-10-21T02:38:02.182Z,3.00
2022-10-21T02:40:42.747Z,6.03
2022-10-21T02:43:15.700Z,4.35
2022-10-21T02:45:45.932Z,11.20
2022-10-21T02:48:13.410Z,1.08
2022-10-21T02:50:40.909Z,9.55
2022-10-21T02:53:10.397Z,5.53
2022-10-21T02:55:37.748Z,2.90
2022-10-21T02:58:05.467Z,2.70
2022-10-21T03:00:33.147Z,6.72
2022-10-21T03:03:00.733Z,7.50
2022-10-21T03:05:28.119Z,3.95
2022-10-21T03:07:55.483Z,3.45
2022-10-21T03:10:22.799Z,2.17
2022-10-21T03:12:50.751Z,5.95
2022-10-21T03:15:18.135Z,2.92
2022-10-21T03:17:45.393Z,4.05
2022-10-21T03:20:12.726Z,4.18
2022-10-21T03:22:40.193Z,3.42
2022-10-21T03:25:07.961Z,5.22
2022-10-21T03:27:35.260Z,5.70
2022-10-21T03:30:03.177Z,5.38
2022-10-21T03:32:30.643Z,4.72
2022-10-21T03:34:58.007Z,6.72
2022-10-21T03:37:25.374Z,6.18
2022-10-21T03:39:52.779Z,3.55
2022-10-21T03:42:20.166Z,5.43
2022-10-21T03:44:47.526Z,7.55
2022-10-21T03:47:14.893Z,8.80
2022-10-21T03:49:42.342Z,4.43
2022-10-21T03:52:09.654Z,7.82
2022-10-21T03:54:37.079Z,4.47
2022-10-21T03:57:04.531Z,3.67
2022-10-21T03:59:31.786Z,8.13
2022-10-21T04:01:59.142Z,4.10
2022-10-21T04:04:26.588Z,3.35
2022-10-21T04:06:53.998Z,6.63
2022-10-21T04:09:21.340Z,8.13
2022-10-21T04:11:48.844Z,5.40
2022-10-21T04:14:16.547Z,4.60
2022-10-21T04:16:44.205Z,7.03
2022-10-21T04:19:19.773Z,5.80
2022-10-21T04:21:47.668Z,7.20
2022-10-21T04:24:15.187Z,7.25
2022-10-21T04:26:42.782Z,7.63
2022-10-21T04:29:10.122Z,11.30
2022-10-21T04:31:37.490Z,10.60
2022-10-21T04:34:04.915Z,5.32
2022-10-21T04:36:32.508Z,6.78
2022-10-21T04:38:59.884Z,11.13
2022-10-21T04:41:27.155Z,5.78
2022-10-21T04:43:54.436Z,5.88
2022-10-21T04:46:21.914Z,8.65
2022-10-21T04:48:49.458Z,6.72
2022-10-21T04:51:16.882Z,11.68
2022-10-21T04:53:44.196Z,7.63
2022-10-21T04:56:11.441Z,7.47
2022-10-21T04:58:38.730Z,7.57
2022-10-21T05:01:06.273Z,10.10
2022-10-21T05:03:33.558Z,7.63
2022-10-21T05:06:00.819Z,9.07
2022-10-21T05:08:28.205Z,7.40
2022-10-21T05:11:00.494Z,9.70
2022-10-21T05:13:31.283Z,10.65
2022-10-21T05:16:03.253Z,12.93
2022-10-21T05:18:31.321Z,7.25
2022-10-21T05:20:59.016Z,10.20
2022-10-21T05:23:27.197Z,4.70
2022-10-21T05:25:55.004Z,6.57
2022-10-21T05:28:22.815Z,13.85
2022-10-21T05:30:50.358Z,9.98
2022-10-21T05:33:17.625Z,13.15
2022-10-21T05:35:44.952Z,11.40
2022-10-21T05:38:12.310Z,5.53
2022-10-21T05:40:40.146Z,7.60
2022-10-21T05:43:07.440Z,11.13
2022-10-21T05:45:34.717Z,7.97
2022-10-21T05:48:01.971Z,8.18
2022-10-21T05:50:29.188Z,6.25
2022-10-21T05:52:58.947Z,6.47
2022-10-21T05:55:26.332Z,8.77
2022-10-21T05:57:53.761Z,6.38
2022-10-21T06:00:21.247Z,6.82
2022-10-21T06:02:48.568Z,10.40
2022-10-21T06:05:16.059Z,6.15
2022-10-21T06:07:43.436Z,5.30
2022-10-21T06:10:12.222Z,12.52
2022-10-21T06:12:39.748Z,9.70
2022-10-21T06:15:07.637Z,8.02
2022-10-21T06:17:35.102Z,11.52
2022-10-21T06:20:02.846Z,7.57
2022-10-21T06:22:30.180Z,10.35
2022-10-21T06:24:57.507Z,7.10
2022-10-21T06:27:24.763Z,10.57
2022-10-21T06:29:52.123Z,9.55
2022-10-21T06:32:19.423Z,7.18
2022-10-21T06:34:46.699Z,9.35
2022-10-21T06:37:14.007Z,10.38
2022-10-21T06:39:41.368Z,10.20
2022-10-21T06:42:08.860Z,14.80
2022-10-21T06:44:42.882Z,8.20
2022-10-21T06:47:10.380Z,9.40
2022-10-21T06:49:37.664Z,10.70
2022-10-21T06:52:05.180Z,8.23
2022-10-21T06:54:32.575Z,9.38
2022-10-21T06:56:59.817Z,5.97
2022-10-21T06:59:27.094Z,7.78
2022-10-21T07:02:01.761Z,9.45
2022-10-21T07:04:29.677Z,11.10
2022-10-21T07:06:57.083Z,10.93
2022-10-21T07:09:24.567Z,10.27
2022-10-21T07:11:52.062Z,17.60
2022-10-21T07:14:19.373Z,12.02
2022-10-21T07:16:47.387Z,7.05
2022-10-21T07:19:14.821Z,16.00
2022-10-21T07:21:42.103Z,11.15
2022-10-21T07:24:10.274Z,10.43
2022-10-21T07:26:37.717Z,8.38
2022-10-21T07:29:05.725Z,13.15
2022-10-21T07:31:36.113Z,12.73
2022-10-21T07:36:40.113Z,9.30
2022-10-21T07:39:11.382Z,8.90
2022-10-21T07:41:42.639Z,9.15
2022-10-21T07:44:11.035Z,11.85
2022-10-21T07:46:40.157Z,6.85
2022-10-21T07:49:07.932Z,6.45
2022-10-21T07:51:35.501Z,10.02
2022-10-21T07:54:03.487Z,16.42
2022-10-21T07:56:34.742Z,12.82
2022-10-21T07:59:03.129Z,9.57
2022-10-21T08:01:31.013Z,9.82
2022-10-21T08:03:59.038Z,8.18
2022-10-21T08:06:27.373Z,13.68
2022-10-21T08:08:57.453Z,17.35
2022-10-21T08:11:27.143Z,9.48
2022-10-21T08:13:55.849Z,8.75
2022-10-21T08:16:24.035Z,11.23
2022-10-21T08:18:51.604Z,14.32
2022-10-21T08:21:18.920Z,13.10
2022-10-21T08:23:46.481Z,9.77
2022-10-21T08:26:16.390Z,8.80
2022-10-21T08:28:44.378Z,13.70
2022-10-21T08:31:17.798Z,12.07
2022-10-21T08:33:45.453Z,14.40
2022-10-21T08:36:15.399Z,15.18
2022-10-21T08:38:43.059Z,10.52
2022-10-21T08:41:25.532Z,14.88
2022-10-21T08:43:54.465Z,9.40
2022-10-21T08:46:27.274Z,13.02
2022-10-21T08:49:01.940Z,14.93
2022-10-21T08:54:05.858Z,12.65
2022-10-21T08:56:33.191Z,14.35
2022-10-21T08:59:00.437Z,15.38
2022-10-21T09:01:47.204Z,10.75
2022-10-21T09:04:47.483Z,16.80
2022-10-21T09:07:39.708Z,14.70
2022-10-21T09:10:23.063Z,18.10
2022-10-21T09:13:05.904Z,17.70
2022-10-21T09:15:42.127Z,18.05
2022-10-21T09:18:20.259Z,12.77
2022-10-21T09:21:05.825Z,8.45
2022-10-21T09:23:57.619Z,11.52
2022-10-21T09:26:36.728Z,13.90
2022-10-21T09:29:26.694Z,15.43
2022-10-21T09:32:02.410Z,17.33
2022-10-21T09:34:48.238Z,14.50
2022-10-21T09:37:42.093Z,11.38
2022-10-21T09:40:20.263Z,20.70
2022-10-21T09:42:51.517Z,17.40
2022-10-21T09:45:38.987Z,8.63
2022-10-21T09:48:18.328Z,11.20
2022-10-21T09:50:58.409Z,11.23
2022-10-21T09:53:33.893Z,13.43
2022-10-21T09:56:11.740Z,10.02
2022-10-21T09:58:38.911Z,22.50
2022-10-21T10:01:06.787Z,23.05
2022-10-21T10:03:41.255Z,26.45
2022-10-21T10:08:38.300Z,14.30
2022-10-21T10:11:14.243Z,27.60
2022-10-21T10:13:48.911Z,19.77
2022-10-21T10:16:29.688Z,19.40
2022-10-21T10:19:12.193Z,16.63
2022-10-21T10:21:39.518Z,16.77
2022-10-21T10:24:06.761Z,10.18
2022-10-21T10:26:42.482Z,9.48
2022-10-21T10:29:27.251Z,9.15
2022-10-21T10:31:57.530Z,12.98
2022-10-21T10:34:31.669Z,10.00
2022-10-21T10:37:06.912Z,8.57
2022-10-21T10:39:37.299Z,18.80
2022-10-21T10:42:04.891Z,16.67
2022-10-21T10:44:41.487Z,10.68
2022-10-21T10:47:19.751Z,18.75
2022-10-21T10:49:47.490Z,12.20
2022-10-21T10:52:22.782Z,14.38
2022-10-21T10:55:13.939Z,15.93
2022-10-21T10:57:51.989Z,10.85
2022-10-21T11:00:26.567Z,17.30
2022-10-21T11:03:10.906Z,15.85
2022-10-21T11:05:45.108Z,12.25
2022-10-21T11:08:23.537Z,9.90
2022-10-21T11:10:56.337Z,14.48
2022-10-21T11:13:25.074Z,13.00
2022-10-21T11:16:14.105Z,15.57
2022-10-21T11:19:04.056Z,16.55
2022-10-21T11:21:48.328Z,18.30
2022-10-21T11:24:50.941Z,16.92
2022-10-21T11:27:53.128Z,19.92
2022-10-21T11:30:23.567Z,22.27
2022-10-21T11:33:02.787Z,20.00
2022-10-21T11:36:08.726Z,15.13
2022-10-21T11:38:50.339Z,16.33
2022-10-21T11:41:21.901Z,25.00
2022-10-21T11:43:58.036Z,13.85
2022-10-21T11:46:46.785Z,19.57
2022-10-21T11:49:46.805Z,22.65
2022-10-21T11:52:21.929Z,17.25
2022-10-21T11:55:08.899Z,16.65
2022-10-21T11:57:52.992Z,18.17
2022-10-21T12:00:24.766Z,25.95
2022-10-21T12:03:03.951Z,23.88
2022-10-21T12:05:36.808Z,24.50
2022-10-21T12:08:27.599Z,17.83
2022-10-21T12:11:04.455Z,20.48
2022-10-21T12:13:39.873Z,19.90
2022-10-21T12:16:12.818Z,15.77
2022-10-21T12:18:47.831Z,11.10
2022-10-21T12:21:21.811Z,21.27
2022-10-21T12:23:54.666Z,30.17
2022-10-21T12:26:35.155Z,26.30
2022-10-21T12:29:20.481Z,18.92
2022-10-21T12:32:11.061Z,28.00
2022-10-21T12:34:38.421Z,23.33
2022-10-21T12:37:51.738Z,20.30
2022-10-21T12:40:39.873Z,20.35
2022-10-21T12:43:28.733Z,20.63
2022-10-21T12:46:06.064Z,17.15
2022-10-21T12:48:38.628Z,20.23
2022-10-21T12:51:28.580Z,24.13
2022-10-21T12:54:15.937Z,23.60
2022-10-21T12:56:45.954Z,14.32
2022-10-21T12:59:43.385Z,24.63
2022-10-21T13:02:21.222Z,24.25
2022-10-21T13:04:51.438Z,17.73
2022-10-21T13:07:19.526Z,24.85
2022-10-21T13:09:53.957Z,36.97
2022-10-21T13:14:53.927Z,24.92
2022-10-21T13:17:21.031Z,22.70
2022-10-21T13:19:51.630Z,27.17
2022-10-21T13:22:23.402Z,17.08
2022-10-21T13:24:50.745Z,40.90
2022-10-21T13:30:07.691Z,21.02
2022-10-21T13:32:39.329Z,25.83
2022-10-21T13:35:29.626Z,18.90
2022-10-21T13:38:17.313Z,14.30
2022-10-21T13:41:01.835Z,22.98
2022-10-21T13:43:48.262Z,26.25
2022-10-21T13:46:40.708Z,30.35
2022-10-21T13:51:58.466Z,15.45
2022-10-21T13:54:25.777Z,26.38
2022-10-21T13:56:53.047Z,25.10
2022-10-21T13:59:32.803Z,33.92
2022-10-21T14:02:00.179Z,20.85
2022-10-21T14:04:32.423Z,24.73
2022-10-21T14:07:05.026Z,23.38
2022-10-21T14:09:41.982Z,20.50
2022-10-21T14:12:29.154Z,21.90
2022-10-21T14:15:01.576Z,24.23
2022-10-21T14:17:28.939Z,33.58
2022-10-21T14:20:07.579Z,26.50
2022-10-21T14:22:34.981Z,25.42
2022-10-21T14:25:02.583Z,22.48
2022-10-21T14:27:32.870Z,18.67
2022-10-21T14:30:05.169Z,17.00
2022-10-21T14:32:33.032Z,32.45
2022-10-21T14:35:09.897Z,25.70
2022-10-21T14:37:46.290Z,14.80
2022-10-21T14:40:29.687Z,25.02
2022-10-21T14:42:56.972Z,19.85
2022-10-21T14:45:30.527Z,23.65
2022-10-21T14:48:12.270Z,23.33
2022-10-21T14:50:41.590Z,20.58
2022-10-21T14:53:33.313Z,19.10
2022-10-21T14:56:03.244Z,22.58
2022-10-21T14:58:35.617Z,15.27
2022-10-21T15:01:11.522Z,20.88
2022-10-21T15:03:43.419Z,18.60
2022-10-21T15:06:16.963Z,18.85
2022-10-21T15:08:56.639Z,16.48
2022-10-21T15:11:36.799Z,23.88
2022-10-21T15:14:13.190Z,19.73
2022-10-21T15:16:55.331Z,22.83
2022-10-21T15:19:44.870Z,32.78
2022-10-21T15:22:38.169Z,23.50
2022-10-21T15:25:09.025Z,31.17
2022-10-21T15:27:42.694Z,24.20
2022-10-21T15:30:19.951Z,25.85
2022-10-21T15:32:48.799Z,38.83
2022-10-21T15:35:21.576Z,43.53
2022-10-21T15:37:52.303Z,29.63
2022-10-21T15:40:21.405Z,31.67
2022-10-21T15:42:49.368Z,23.63
2022-10-21T15:45:19.755Z,38.20
2022-10-21T15:47:54.913Z,22.00
2022-10-21T15:50:24.866Z,16.83
2022-10-21T15:52:52.577Z,20.88
2022-10-21T15:55:19.906Z,21.83
2022-10-21T15:57:47.215Z,25.38
2022-10-21T16:00:23.605Z,22.00
2022-10-21T16:02:51.953Z,15.75
2022-10-21T16:05:21.314Z,19.42
2022-10-21T16:07:48.525Z,20.30
2022-10-21T16:10:26.321Z,15.60
2022-10-21T16:12:54.356Z,21.65
2022-10-21T16:15:22.304Z,21.45
2022-10-21T16:17:53.516Z,18.60
2022-10-21T16:20:24.069Z,28.17
2022-10-21T16:22:51.774Z,22.88
2022-10-21T16:25:19.504Z,17.88
2022-10-21T16:28:02.476Z,21.88
2022-10-21T16:30:35.025Z,20.27
2022-10-21T16:33:02.363Z,15.27
2022-10-21T16:35:29.563Z,13.55
2022-10-21T16:37:56.778Z,18.67
2022-10-21T16:40:27.184Z,23.77
2022-10-21T16:42:54.839Z,10.32
2022-10-21T16:45:23.344Z,12.27
2022-10-21T16:47:54.105Z,23.25
2022-10-21T16:50:45.880Z,21.25
2022-10-21T16:53:17.495Z,15.45
2022-10-21T16:55:44.775Z,19.63
2022-10-21T16:58:12.110Z,17.98
2022-10-21T17:00:39.416Z,14.25
2022-10-21T17:03:07.067Z,20.73
2022-10-21T17:05:35.740Z,16.25
2022-10-21T17:08:03.094Z,17.73
2022-10-21T17:10:30.308Z,16.45
2022-10-21T17:12:59.420Z,20.17
2022-10-21T17:15:28.038Z,14.07
2022-10-21T17:17:55.415Z,16.83
2022-10-21T17:20:22.674Z,19.60
2022-10-21T17:22:49.943Z,23.27
2022-10-21T17:25:17.623Z,21.85
2022-10-21T17:27:44.847Z,17.52
2022-10-21T17:30:12.470Z,20.95
2022-10-21T17:32:39.792Z,21.60
2022-10-21T17:35:07.689Z,24.92
2022-10-21T17:37:34.897Z,18.38
2022-10-21T17:40:02.131Z,18.75
2022-10-21T17:42:29.548Z,17.58
2022-10-21T17:44:58.347Z,12.07
2022-10-21T17:47:25.611Z,22.10
2022-10-21T17:49:52.998Z,21.35
2022-10-21T17:52:20.272Z,24.05
2022-10-21T17:54:47.555Z,14.32
2022-10-21T17:57:15.201Z,21.02
2022-10-21T17:59:43.385Z,21.15
2022-10-21T18:02:10.753Z,18.75
2022-10-21T18:04:38.173Z,15.98
2022-10-21T18:07:09.269Z,21.42
2022-10-21T18:09:37.240Z,14.05
2022-10-21T18:12:09.467Z,21.15
2022-10-21T18:14:36.907Z,23.92
2022-10-21T18:17:04.339Z,21.63
2022-10-21T18:19:31.681Z,15.43
2022-10-21T18:21:58.939Z,24.27
2022-10-21T18:24:26.201Z,18.02
2022-10-21T18:26:53.495Z,20.13
2022-10-21T18:29:22.294Z,19.90
2022-10-21T18:31:49.869Z,20.33
2022-10-21T18:34:17.099Z,14.63
2022-10-21T18:36:44.585Z,19.80
2022-10-21T18:39:13.130Z,24.33
2022-10-21T18:41:40.693Z,15.27
2022-10-21T18:44:10.985Z,17.75
2022-10-21T18:46:40.310Z,17.05
2022-10-21T18:49:11.941Z,21.75
2022-10-21T18:51:39.431Z,26.23
2022-10-21T18:54:06.983Z,18.15
2022-10-21T18:56:34.454Z,15.63
2022-10-21T18:59:03.947Z,25.08
2022-10-21T19:01:31.425Z,18.63
2022-10-21T19:03:58.878Z,20.10
2022-10-21T19:06:31.106Z,15.80
2022-10-21T19:09:01.253Z,24.73
2022-10-21T19:11:29.843Z,16.20
2022-10-21T19:13:57.608Z,16.98
2022-10-21T19:16:24.863Z,14.48
2022-10-21T19:18:53.479Z,11.90
2022-10-21T19:21:22.023Z,16.90
2022-10-21T19:23:49.856Z,18.33
2022-10-21T19:26:19.940Z,13.95
2022-10-21T19:28:50.204Z,12.65
2022-10-21T19:31:21.038Z,15.35
2022-10-21T19:33:48.556Z,16.00
2022-10-21T19:36:16.047Z,16.38
2022-10-21T19:38:44.678Z,13.15
2022-10-21T19:41:15.721Z,15.60
2022-10-21T19:43:43.379Z,16.05
2022-10-21T19:46:14.505Z,26.02
2022-10-21T19:48:41.827Z,28.92
2022-10-21T19:51:15.172Z,26.20
2022-10-21T19:53:45.122Z,30.93
2022-10-21T19:56:13.637Z,13.40
2022-10-21T19:58:41.703Z,15.10
2022-10-21T20:01:11.574Z,18.70
2022-10-21T20:03:40.234Z,23.38
2022-10-21T20:06:16.422Z,15.73
2022-10-21T20:08:44.320Z,14.43
2022-10-21T20:11:18.158Z,20.67
2022-10-21T20:13:46.255Z,16.55
2022-10-21T20:16:19.009Z,17.65
2022-10-21T20:18:46.770Z,15.57
2022-10-21T20:21:14.356Z,20.02
2022-10-21T20:23:41.621Z,12.48
2022-10-21T20:26:08.939Z,14.13
2022-10-21T20:28:36.831Z,17.70
2022-10-21T20:31:04.314Z,20.67
2022-10-21T20:33:35.138Z,21.55
2022-10-21T20:36:16.149Z,13.80
2022-10-21T20:38:43.801Z,22.55
2022-10-21T20:41:13.823Z,17.83
2022-10-21T20:43:42.087Z,19.58
2022-10-21T20:46:11.998Z,12.13
2022-10-21T20:48:44.564Z,13.38
2022-10-21T20:51:15.249Z,14.82
2022-10-21T20:56:15.294Z,15.20
2022-10-21T20:58:43.187Z,18.42
2022-10-21T21:01:13.411Z,12.60
2022-10-21T21:03:42.812Z,30.00
2022-10-21T21:06:11.863Z,16.90
2022-10-21T21:08:49.044Z,13.90
2022-10-21T21:11:26.206Z,11.35
2022-10-21T21:13:53.466Z,19.25
2022-10-21T21:16:22.644Z,23.92
2022-10-21T21:18:53.318Z,20.00
2022-10-21T21:21:22.313Z,18.50
2022-10-21T21:23:49.668Z,11.82
2022-10-21T21:26:22.554Z,13.60
2022-10-21T21:28:51.096Z,17.42
2022-10-21T21:31:23.092Z,18.10
2022-10-21T21:33:50.765Z,12.73
2022-10-21T21:36:19.659Z,20.67
2022-10-21T21:38:47.402Z,19.10
2022-10-21T21:41:16.797Z,16.33
2022-10-21T21:43:49.099Z,12.35
2022-10-21T21:46:22.886Z,16.20
2022-10-21T21:49:01.119Z,23.25
2022-10-21T21:51:31.660Z,21.10
2022-10-21T21:53:59.260Z,18.55
2022-10-21T21:56:28.234Z,15.38
2022-10-21T21:58:58.073Z,19.55
2022-10-21T22:01:28.358Z,16.00
2022-10-21T22:03:56.447Z,14.60
2022-10-21T22:09:00.333Z,19.40
2022-10-21T22:11:30.622Z,16.42
2022-10-21T22:13:58.336Z,14.57
2022-10-21T22:16:30.269Z,13.05
2022-10-21T22:18:59.901Z,13.05
2022-10-21T22:21:27.671Z,13.75
2022-10-21T22:23:55.097Z,15.55
2022-10-21T22:26:27.018Z,27.65
2022-10-21T22:28:54.897Z,17.85
2022-10-21T22:31:27.422Z,17.30
2022-10-21T22:33:58.269Z,18.20
2022-10-21T22:36:27.077Z,22.10
2022-10-21T22:38:54.286Z,16.42
2022-10-21T22:41:21.711Z,22.80
2022-10-21T22:43:48.943Z,17.77
2022-10-21T22:49:04.855Z,10.88
2022-10-21T22:51:33.302Z,19.00
2022-10-21T22:54:01.235Z,14.75
2022-10-21T22:56:28.867Z,15.88
2022-10-21T22:58:57.664Z,19.52
2022-10-21T23:01:30.490Z,13.55
2022-10-21T23:04:04.659Z,11.05
2022-10-21T23:06:34.022Z,12.45
2022-10-21T23:09:03.329Z,13.77
2022-10-21T23:11:30.710Z,9.02
2022-10-21T23:14:03.452Z,7.40
2022-10-21T23:16:36.143Z,15.35
2022-10-21T23:19:03.857Z,15.00
2022-10-21T23:21:31.170Z,15.18
2022-10-21T23:23:58.405Z,15.65
2022-10-21T23:26:25.701Z,10.80
2022-10-21T23:28:52.953Z,12.30
2022-10-21T23:31:20.447Z,6.82
2022-10-21T23:33:47.842Z,11.63
2022-10-21T23:36:15.064Z,8.45
2022-10-21T23:38:42.354Z,7.90
2022-10-21T23:41:09.582Z,5.82
2022-10-21T23:43:36.795Z,10.60
2022-10-21T23:46:06.761Z,5.78
2022-10-21T23:48:34.064Z,8.25
2022-10-21T23:51:01.356Z,10.50
2022-10-21T23:53:28.646Z,9.70
2022-10-21T23:55:56.012Z,7.57
2022-10-21T23:58:23.302Z,7.60
